createdAt,value
2023-05-05T00:01:24.382Z,97545.72
2023-05-05T00:03:51.063Z,97538.81
2023-05-05T00:06:18.107Z,97537.47
2023-05-05T00:08:44.641Z,97529.56
2023-05-05T00:11:12.126Z,97522.81
2023-05-05T00:13:38.848Z,97533.53
2023-05-05T00:16:06.044Z,97533.88
2023-05-05T00:18:33.896Z,97475.84
2023-05-05T00:21:01.261Z,97529.88
2023-05-05T00:23:27.859Z,97481.63
2023-05-05T00:25:54.464Z,97508.13
2023-05-05T00:28:21.264Z,97522.97
2023-05-05T00:30:47.882Z,97524.47
2023-05-05T00:33:14.489Z,97518.34
2023-05-05T00:35:41.038Z,97512.56
2023-05-05T00:38:07.625Z,97472.22
2023-05-05T00:40:34.261Z,97433.34
2023-05-05T00:43:00.879Z,97508.13
2023-05-05T00:45:27.729Z,97513.41
2023-05-05T00:47:56.153Z,97507.47
2023-05-05T00:50:23.747Z,97499.91
2023-05-05T00:52:51.783Z,97519.47
2023-05-05T00:55:18.998Z,97506.16
2023-05-05T00:57:46.093Z,97484.69
2023-05-05T01:00:13.291Z,97458.97
2023-05-05T01:02:40.581Z,97508.22
2023-05-05T01:05:09.526Z,97478.75
2023-05-05T01:08:03.663Z,97516.13
2023-05-05T01:10:48.761Z,97515.03
2023-05-05T01:13:36.300Z,97507.06
2023-05-05T01:16:20.663Z,97445.72
2023-05-05T01:19:12.200Z,97505.38
2023-05-05T01:21:56.253Z,97510.69
2023-05-05T01:24:58.300Z,97502.13
2023-05-05T01:27:34.326Z,97507.69
2023-05-05T01:30:38.437Z,97503.91
2023-05-05T01:33:08.540Z,97473.38
2023-05-05T01:35:43.786Z,97507.38
2023-05-05T01:38:16.318Z,97506.19
2023-05-05T01:40:52.169Z,97482.09
2023-05-05T01:43:21.175Z,97517.16
2023-05-05T01:45:49.596Z,97478.91
2023-05-05T01:48:19.822Z,97511.56
2023-05-05T01:50:48.201Z,97509.09
2023-05-05T01:53:18.317Z,97509.63
2023-05-05T01:55:46.892Z,97507.63
2023-05-05T01:58:15.975Z,97486.19
2023-05-05T02:00:44.904Z,97497.88
2023-05-05T02:03:14.955Z,97503.16
2023-05-05T02:05:43.714Z,97502.84
2023-05-05T02:08:11.554Z,97503.22
2023-05-05T02:10:40.960Z,97495.47
2023-05-05T02:13:10.680Z,97491.53
2023-05-05T02:15:39.164Z,97491.50
2023-05-05T02:18:06.999Z,97489.19
2023-05-05T02:20:34.547Z,97490.63
2023-05-05T02:23:01.214Z,97474.69
2023-05-05T02:25:40.484Z,97479.59
2023-05-05T02:28:15.341Z,97480.44
2023-05-05T02:30:43.706Z,97442.31
2023-05-05T02:33:13.344Z,97484.19
2023-05-05T02:35:41.769Z,97483.34
2023-05-05T02:38:17.243Z,97476.94
2023-05-05T02:40:46.685Z,97487.78
2023-05-05T02:43:16.819Z,97445.59
2023-05-05T02:45:43.551Z,97469.00
2023-05-05T02:48:13.086Z,97474.66
2023-05-05T02:50:39.761Z,97442.00
2023-05-05T02:53:06.892Z,97479.25
2023-05-05T02:56:18.170Z,97476.63
2023-05-05T02:59:23.450Z,97478.75
2023-05-05T03:02:21.343Z,97467.00
2023-05-05T03:04:56.630Z,97467.19
2023-05-05T03:07:30.732Z,97454.81
2023-05-05T03:10:07.597Z,97461.72
2023-05-05T03:12:39.960Z,97452.13
2023-05-05T03:15:10.046Z,97420.56
2023-05-05T03:17:37.266Z,97390.28
2023-05-05T03:20:07.588Z,97432.44
2023-05-05T03:22:38.244Z,97425.38
2023-05-05T03:25:06.255Z,97432.16
2023-05-05T03:27:34.303Z,97429.75
2023-05-05T03:30:01.170Z,97420.94
2023-05-05T03:32:27.759Z,97430.84
2023-05-05T03:34:54.584Z,97421.28
2023-05-05T03:37:21.148Z,97397.88
2023-05-05T03:39:47.706Z,97425.53
2023-05-05T03:42:14.489Z,97374.75
2023-05-05T03:44:41.095Z,97360.72
2023-05-05T03:47:07.772Z,97368.16
2023-05-05T03:49:34.497Z,97377.59
2023-05-05T03:52:01.654Z,97367.75
2023-05-05T03:54:28.221Z,97379.25
2023-05-05T03:56:55.784Z,97319.63
2023-05-05T03:59:22.304Z,97366.22
2023-05-05T04:01:49.995Z,97381.06
2023-05-05T04:04:16.688Z,97384.88
2023-05-05T04:06:43.918Z,97351.88
2023-05-05T04:09:12.170Z,97292.84
2023-05-05T04:11:38.728Z,97384.63
2023-05-05T04:14:05.201Z,97369.34
2023-05-05T04:16:31.752Z,97361.94
2023-05-05T04:18:58.458Z,97384.47
2023-05-05T04:21:25.149Z,97285.66
2023-05-05T04:23:52.381Z,97366.69
2023-05-05T04:26:18.939Z,97335.75
2023-05-05T04:28:45.501Z,97298.91
2023-05-05T04:31:12.216Z,97359.16
2023-05-05T04:33:38.796Z,97343.22
2023-05-05T04:36:05.583Z,97348.31
2023-05-05T04:38:32.278Z,97336.47
2023-05-05T04:40:59.994Z,97359.50
2023-05-05T04:43:27.833Z,97339.06
2023-05-05T04:45:56.157Z,97343.03
2023-05-05T04:48:23.047Z,97335.84
2023-05-05T04:50:49.698Z,97337.75
2023-05-05T04:53:16.208Z,97320.03
2023-05-05T04:55:42.867Z,97331.56
2023-05-05T04:58:09.579Z,97340.44
2023-05-05T05:00:37.869Z,97340.75
2023-05-05T05:03:04.675Z,97342.09
2023-05-05T05:05:31.525Z,97308.53
2023-05-05T05:07:58.139Z,97365.47
2023-05-05T05:10:24.746Z,97363.50
2023-05-05T05:12:52.234Z,97325.28
2023-05-05T05:15:19.078Z,97362.50
2023-05-05T05:17:45.724Z,97321.88
2023-05-05T05:20:12.418Z,97365.84
2023-05-05T05:22:39.107Z,97344.06
2023-05-05T05:25:06.073Z,97397.78
2023-05-05T05:27:32.598Z,97390.34
2023-05-05T05:29:59.396Z,97389.19
2023-05-05T05:32:26.417Z,97419.16
2023-05-05T05:34:53.013Z,97415.84
2023-05-05T05:37:19.565Z,97412.81
2023-05-05T05:39:52.151Z,97438.56
2023-05-05T05:42:19.509Z,97482.44
2023-05-05T05:44:46.128Z,97507.81
2023-05-05T05:47:12.658Z,97534.75
2023-05-05T05:49:39.276Z,97549.16
2023-05-05T05:52:06.253Z,97445.25
2023-05-05T05:54:34.870Z,97580.16
2023-05-05T05:57:02.571Z,97609.31
2023-05-05T05:59:29.201Z,97641.81
2023-05-05T06:01:56.227Z,97680.94
2023-05-05T06:04:23.187Z,97733.13
2023-05-05T06:06:49.870Z,97792.38
2023-05-05T06:09:16.479Z,97797.84
2023-05-05T06:11:43.128Z,97840.00
2023-05-05T06:14:09.716Z,97880.28
2023-05-05T06:16:36.319Z,97874.13
2023-05-05T06:19:04.388Z,97903.88
2023-05-05T06:21:31.075Z,97891.47
2023-05-05T06:23:57.692Z,97919.78
2023-05-05T06:26:24.255Z,97993.66
2023-05-05T06:28:50.877Z,98099.41
2023-05-05T06:31:17.599Z,98439.75
2023-05-05T06:33:44.242Z,98563.84
2023-05-05T06:36:10.949Z,98720.88
2023-05-05T06:38:37.525Z,98746.03
2023-05-05T06:41:04.323Z,98697.25
2023-05-05T06:43:31.510Z,98741.56
2023-05-05T06:45:58.123Z,98856.31
2023-05-05T06:48:25.012Z,98851.84
2023-05-05T06:50:51.611Z,98891.06
2023-05-05T06:53:18.210Z,98884.66
2023-05-05T06:55:46.502Z,98958.41
2023-05-05T06:58:13.233Z,98954.75
2023-05-05T07:00:40.971Z,98963.88
2023-05-05T07:03:07.955Z,98960.38
2023-05-05T07:05:34.498Z,98973.38
2023-05-05T07:08:01.016Z,98961.88
2023-05-05T07:10:28.059Z,99041.81
2023-05-05T07:12:55.177Z,99062.09
2023-05-05T07:15:28.855Z,99078.94
2023-05-05T07:17:56.929Z,99063.16
2023-05-05T07:20:24.360Z,99070.31
2023-05-05T07:22:51.490Z,99059.69
2023-05-05T07:25:18.206Z,99081.41
2023-05-05T07:27:45.030Z,99045.34
2023-05-05T07:30:15.562Z,99048.81
2023-05-05T07:32:44.763Z,99080.69
2023-05-05T07:35:11.450Z,99075.19
2023-05-05T07:37:38.098Z,99084.22
2023-05-05T07:40:05.191Z,99071.78
2023-05-05T07:42:31.731Z,99078.06
2023-05-05T07:44:58.430Z,99084.41
2023-05-05T07:47:25.129Z,99076.06
2023-05-05T07:49:51.689Z,99077.22
2023-05-05T07:52:33.079Z,98987.16
2023-05-05T07:55:04.463Z,99080.28
2023-05-05T07:57:30.991Z,99058.09
2023-05-05T07:59:57.523Z,99076.25
2023-05-05T08:02:24.306Z,99081.47
2023-05-05T08:04:50.895Z,99081.53
2023-05-05T08:07:17.431Z,99083.09
2023-05-05T08:09:44.007Z,99081.69
2023-05-05T08:12:12.375Z,99064.75
2023-05-05T08:14:40.925Z,99058.53
2023-05-05T08:17:07.447Z,99080.75
2023-05-05T08:19:34.072Z,99074.47
2023-05-05T08:22:01.748Z,99090.66
2023-05-05T08:24:28.354Z,99049.53
2023-05-05T08:26:56.171Z,99087.84
2023-05-05T08:29:23.098Z,99055.63
2023-05-05T08:31:49.735Z,99084.75
2023-05-05T08:34:16.326Z,99094.56
2023-05-05T08:36:42.878Z,99067.81
2023-05-05T08:39:09.805Z,99094.50
2023-05-05T08:41:36.369Z,99093.84
2023-05-05T08:44:03.068Z,99062.00
2023-05-05T08:46:31.588Z,99086.53
2023-05-05T08:49:00.210Z,99080.56
2023-05-05T08:51:31.732Z,99077.06
2023-05-05T08:54:02.896Z,99071.75
2023-05-05T08:56:34.394Z,99062.88
2023-05-05T08:59:02.669Z,99076.78
2023-05-05T09:01:32.596Z,99075.91
2023-05-05T09:04:00.014Z,99039.72
2023-05-05T09:06:27.426Z,99059.38
2023-05-05T09:08:54.490Z,99064.38
2023-05-05T09:11:22.647Z,99040.50
2023-05-05T09:13:49.932Z,99058.06
2023-05-05T09:16:16.689Z,99074.56
2023-05-05T09:18:43.334Z,99076.44
2023-05-05T09:21:21.378Z,99072.59
2023-05-05T09:24:09.234Z,99066.06
2023-05-05T09:26:38.696Z,99079.22
2023-05-05T09:29:06.133Z,99081.84
2023-05-05T09:31:36.777Z,99069.75
2023-05-05T09:34:15.521Z,99073.84
2023-05-05T09:36:47.575Z,99068.53
2023-05-05T09:39:19.160Z,99038.19
2023-05-05T09:41:46.964Z,99075.78
2023-05-05T09:44:16.153Z,99065.59
2023-05-05T09:46:53.573Z,99057.03
2023-05-05T09:49:26.988Z,99070.47
2023-05-05T09:51:54.915Z,99083.81
2023-05-05T09:54:23.248Z,99065.59
2023-05-05T09:56:50.868Z,99051.31
2023-05-05T09:59:17.774Z,99042.16
2023-05-05T10:01:45.671Z,99090.97
2023-05-05T10:04:31.596Z,99079.66
2023-05-05T10:06:59.172Z,99077.94
2023-05-05T10:09:27.090Z,99081.91
2023-05-05T10:11:56.282Z,99077.50
2023-05-05T10:14:25.268Z,99041.22
2023-05-05T10:16:54.479Z,99071.59
2023-05-05T10:19:25.008Z,99041.13
2023-05-05T10:21:54.515Z,99057.91
2023-05-05T10:24:50.250Z,99041.19
2023-05-05T10:27:23.344Z,99040.38
2023-05-05T10:29:52.828Z,99032.44
2023-05-05T10:32:56.350Z,99009.66
2023-05-05T10:35:22.983Z,99027.94
2023-05-05T10:37:52.183Z,99027.28
2023-05-05T10:40:22.110Z,99027.44
2023-05-05T10:42:51.853Z,99002.09
2023-05-05T10:45:18.550Z,99027.47
2023-05-05T10:47:45.521Z,99000.56
2023-05-05T10:50:29.921Z,99014.91
2023-05-05T10:53:39.740Z,99007.53
2023-05-05T10:56:14.508Z,99013.22
2023-05-05T10:58:58.463Z,98994.78
2023-05-05T11:01:33.434Z,99019.78
2023-05-05T11:04:22.743Z,99005.06
2023-05-05T11:07:09.796Z,99003.38
2023-05-05T11:09:57.731Z,98996.56
2023-05-05T11:12:24.720Z,98970.41
2023-05-05T11:15:22.198Z,98990.50
2023-05-05T11:17:49.094Z,98998.97
2023-05-05T11:20:16.142Z,98955.78
2023-05-05T11:23:05.019Z,98996.91
2023-05-05T11:25:35.533Z,98996.66
2023-05-05T11:28:08.763Z,98989.16
2023-05-05T11:30:59.493Z,98982.84
2023-05-05T11:33:38.932Z,98960.63
2023-05-05T11:36:07.376Z,98978.47
2023-05-05T11:39:02.644Z,98963.84
2023-05-05T11:41:32.330Z,98984.31
2023-05-05T11:44:14.877Z,98982.69
2023-05-05T11:47:06.100Z,98967.38
2023-05-05T11:49:38.049Z,98959.47
2023-05-05T11:52:12.900Z,98925.72
2023-05-05T11:54:41.674Z,98950.31
2023-05-05T11:57:11.585Z,98952.16
2023-05-05T11:59:49.793Z,98945.47
2023-05-05T12:02:18.049Z,98938.38
2023-05-05T12:04:46.917Z,98952.31
2023-05-05T12:07:22.106Z,98942.44
2023-05-05T12:09:49.957Z,98937.81
2023-05-05T12:12:16.999Z,98908.41
2023-05-05T12:14:47.058Z,98929.22
2023-05-05T12:17:14.226Z,98926.69
2023-05-05T12:19:52.268Z,98928.25
2023-05-05T12:22:24.016Z,98924.25
2023-05-05T12:25:01.476Z,98923.44
2023-05-05T12:27:28.943Z,98921.47
2023-05-05T12:29:57.653Z,98911.81
2023-05-05T12:32:27.853Z,98922.34
2023-05-05T12:34:57.337Z,98918.91
2023-05-05T12:37:26.148Z,98933.56
2023-05-05T12:39:55.100Z,98931.84
2023-05-05T12:42:22.578Z,98931.06
2023-05-05T12:44:49.514Z,98931.78
2023-05-05T12:47:32.892Z,98944.94
2023-05-05T12:50:00.801Z,98944.50
2023-05-05T12:52:44.654Z,98936.84
2023-05-05T12:55:11.856Z,98935.44
2023-05-05T12:57:39.518Z,98905.22
2023-05-05T13:00:14.869Z,98932.88
2023-05-05T13:02:41.560Z,98933.78
2023-05-05T13:05:08.980Z,98919.69
2023-05-05T13:07:35.682Z,98935.09
2023-05-05T13:10:10.805Z,98924.50
2023-05-05T13:12:37.722Z,98942.91
2023-05-05T13:15:04.687Z,98911.72
2023-05-05T13:17:34.112Z,98940.41
2023-05-05T13:20:01.309Z,98910.03
2023-05-05T13:22:27.835Z,98924.31
2023-05-05T13:24:54.445Z,98923.53
2023-05-05T13:27:21.313Z,98906.78
2023-05-05T13:29:47.995Z,98869.97
2023-05-05T13:32:14.492Z,98904.03
2023-05-05T13:34:42.701Z,98894.78
2023-05-05T13:37:09.432Z,98899.28
2023-05-05T13:39:36.964Z,98885.53
2023-05-05T13:42:03.837Z,98892.13
2023-05-05T13:44:30.432Z,98884.28
2023-05-05T13:46:57.114Z,98880.34
2023-05-05T13:49:24.263Z,98866.34
2023-05-05T13:51:50.847Z,98856.03
2023-05-05T13:54:17.474Z,98854.75
2023-05-05T13:56:44.192Z,98852.09
2023-05-05T13:59:10.887Z,98862.19
2023-05-05T14:01:37.717Z,98850.78
2023-05-05T14:04:05.597Z,98850.22
2023-05-05T14:06:33.537Z,98816.34
2023-05-05T14:09:00.125Z,98853.56
2023-05-05T14:11:26.806Z,98822.94
2023-05-05T14:13:53.415Z,98851.44
2023-05-05T14:16:20.367Z,98844.38
2023-05-05T14:18:46.937Z,98872.50
2023-05-05T14:21:13.546Z,98849.09
2023-05-05T14:23:40.274Z,98823.81
2023-05-05T14:26:08.880Z,98770.09
2023-05-05T14:28:35.663Z,98740.63
2023-05-05T14:31:02.239Z,98586.91
2023-05-05T14:33:28.799Z,98625.13
2023-05-05T14:35:55.851Z,98580.50
2023-05-05T14:38:22.570Z,98382.19
2023-05-05T14:40:49.287Z,98412.47
2023-05-05T14:43:15.847Z,98378.94
2023-05-05T14:45:44.250Z,98270.56
2023-05-05T14:48:10.985Z,98205.75
2023-05-05T14:50:41.020Z,97779.50
2023-05-05T14:53:07.557Z,97667.69
2023-05-05T14:55:34.131Z,97764.91
2023-05-05T14:58:00.851Z,97806.97
2023-05-05T15:00:27.950Z,97875.28
2023-05-05T15:02:54.618Z,97944.88
2023-05-05T15:05:21.364Z,97994.53
2023-05-05T15:07:47.990Z,97900.13
2023-05-05T15:10:15.043Z,97924.38
2023-05-05T15:12:42.852Z,97970.03
2023-05-05T15:15:10.298Z,97882.06
2023-05-05T15:17:38.745Z,97752.84
2023-05-05T15:20:06.814Z,97720.91
2023-05-05T15:22:33.839Z,97749.59
2023-05-05T15:25:00.520Z,97772.94
2023-05-05T15:27:27.367Z,97778.53
2023-05-05T15:29:55.342Z,97853.88
2023-05-05T15:32:22.054Z,97867.94
2023-05-05T15:34:50.395Z,97916.53
2023-05-05T15:37:17.393Z,97981.88
2023-05-05T15:39:43.988Z,97963.91
2023-05-05T15:42:10.677Z,97987.47
2023-05-05T15:44:37.274Z,98106.34
2023-05-05T15:47:04.346Z,98029.72
2023-05-05T15:49:31.263Z,98051.56
2023-05-05T15:51:58.038Z,98058.44
2023-05-05T15:54:24.791Z,98084.25
2023-05-05T15:56:52.423Z,98002.06
2023-05-05T15:59:19.382Z,97989.88
2023-05-05T16:01:46.871Z,98078.69
2023-05-05T16:04:13.829Z,98072.84
2023-05-05T16:06:41.024Z,98063.66
2023-05-05T16:09:07.823Z,98039.50
2023-05-05T16:11:34.983Z,98043.75
2023-05-05T16:14:01.498Z,98154.50
2023-05-05T16:16:28.445Z,98115.28
2023-05-05T16:18:55.194Z,98148.00
2023-05-05T16:21:22.184Z,98169.19
2023-05-05T16:23:48.755Z,98140.34
2023-05-05T16:26:15.433Z,98175.94
2023-05-05T16:28:42.053Z,98139.81
2023-05-05T16:31:11.028Z,98102.69
2023-05-05T16:33:40.794Z,98145.59
2023-05-05T16:36:10.103Z,98161.81
2023-05-05T16:38:37.374Z,98122.31
2023-05-05T16:41:04.266Z,98092.84
2023-05-05T16:43:31.050Z,98115.00
2023-05-05T16:45:57.674Z,98064.22
2023-05-05T16:48:24.317Z,98090.47
2023-05-05T16:50:51.066Z,98052.94
2023-05-05T16:53:17.620Z,98052.72
2023-05-05T16:55:44.188Z,98062.66
2023-05-05T16:58:10.773Z,98007.66
2023-05-05T17:00:37.397Z,97925.34
2023-05-05T17:03:04.578Z,97850.38
2023-05-05T17:05:31.130Z,97714.19
2023-05-05T17:07:57.833Z,97688.13
2023-05-05T17:10:24.454Z,97551.19
2023-05-05T17:12:51.174Z,97589.88
2023-05-05T17:15:17.890Z,97613.13
2023-05-05T17:17:44.569Z,97630.75
2023-05-05T17:20:12.134Z,97707.81
2023-05-05T17:22:38.700Z,97679.38
2023-05-05T17:25:06.006Z,97733.75
2023-05-05T17:27:35.021Z,97749.97
2023-05-05T17:30:01.679Z,97787.31
2023-05-05T17:32:28.180Z,97766.78
2023-05-05T17:34:54.848Z,97771.59
2023-05-05T17:37:21.529Z,97798.00
2023-05-05T17:39:48.307Z,97725.13
2023-05-05T17:42:16.695Z,97534.72
2023-05-05T17:44:43.276Z,97564.22
2023-05-05T17:47:10.588Z,97493.19
2023-05-05T17:49:37.242Z,97410.34
2023-05-05T17:52:03.975Z,97376.06
2023-05-05T17:54:30.674Z,97347.44
2023-05-05T17:56:57.468Z,97330.94
2023-05-05T17:59:24.071Z,97319.66
2023-05-05T18:01:50.652Z,97276.88
2023-05-05T18:04:17.586Z,97265.75
2023-05-05T18:06:44.366Z,97256.25
2023-05-05T18:09:11.401Z,97238.28
2023-05-05T18:11:38.009Z,97187.09
2023-05-05T18:14:04.552Z,97214.41
2023-05-05T18:16:31.265Z,97162.56
2023-05-05T18:18:57.933Z,97203.91
2023-05-05T18:21:24.452Z,97212.63
2023-05-05T18:23:51.085Z,97202.69
2023-05-05T18:26:17.763Z,97187.69
2023-05-05T18:28:44.264Z,97195.13
2023-05-05T18:31:10.980Z,97204.19
2023-05-05T18:33:37.672Z,97216.56
2023-05-05T18:36:04.670Z,97207.50
2023-05-05T18:38:32.377Z,97225.72
2023-05-05T18:41:00.340Z,97245.19
2023-05-05T18:43:26.865Z,97234.56
2023-05-05T18:45:53.451Z,97227.94
2023-05-05T18:48:20.051Z,97194.19
2023-05-05T18:50:47.698Z,97147.38
2023-05-05T18:53:14.923Z,97170.25
2023-05-05T18:55:43.167Z,97152.31
2023-05-05T18:58:09.977Z,97135.69
2023-05-05T19:00:38.119Z,97136.56
2023-05-05T19:03:05.143Z,97129.88
2023-05-05T19:05:31.744Z,97100.31
2023-05-05T19:07:58.271Z,97114.03
2023-05-05T19:10:24.966Z,97111.75
2023-05-05T19:12:51.633Z,97102.09
2023-05-05T19:15:18.716Z,97085.31
2023-05-05T19:17:45.318Z,97062.44
2023-05-05T19:20:11.886Z,97032.97
2023-05-05T19:22:38.438Z,97013.00
2023-05-05T19:25:05.313Z,96990.72
2023-05-05T19:27:35.029Z,96957.97
2023-05-05T19:30:01.768Z,96948.72
2023-05-05T19:32:28.340Z,96932.59
2023-05-05T19:34:54.951Z,96946.59
2023-05-05T19:37:21.600Z,96943.69
2023-05-05T19:39:49.088Z,96932.31
2023-05-05T19:42:16.959Z,96931.66
2023-05-05T19:44:43.566Z,96939.97
2023-05-05T19:47:10.990Z,96926.16
2023-05-05T19:49:37.807Z,96918.84
2023-05-05T19:52:04.567Z,96893.03
2023-05-05T19:54:31.238Z,96860.38
2023-05-05T19:56:57.919Z,96869.94
2023-05-05T19:59:24.536Z,96795.72
2023-05-05T20:01:51.672Z,96723.66
2023-05-05T20:04:18.474Z,96671.97
2023-05-05T20:06:45.107Z,96621.16
2023-05-05T20:09:11.848Z,96483.97
2023-05-05T20:11:38.461Z,96380.75
2023-05-05T20:14:05.039Z,96261.78
2023-05-05T20:16:31.640Z,96165.78
2023-05-05T20:18:58.161Z,96120.16
2023-05-05T20:21:24.744Z,96110.09
2023-05-05T20:23:51.320Z,96090.69
2023-05-05T20:26:18.236Z,96041.97
2023-05-05T20:28:45.993Z,95974.72
2023-05-05T20:31:14.436Z,95925.66
2023-05-05T20:33:41.289Z,95759.38
2023-05-05T20:36:08.018Z,95696.69
2023-05-05T20:38:34.608Z,95695.34
2023-05-05T20:41:01.308Z,95570.06
2023-05-05T20:43:27.915Z,95526.19
2023-05-05T20:45:54.623Z,95455.28
2023-05-05T20:48:21.285Z,95444.78
2023-05-05T20:50:47.873Z,95401.59
2023-05-05T20:53:15.023Z,95382.06
2023-05-05T20:55:41.777Z,95332.41
2023-05-05T20:58:08.359Z,95285.63
2023-05-05T21:00:35.413Z,95311.72
2023-05-05T21:03:02.809Z,95266.91
2023-05-05T21:05:31.106Z,95292.97
2023-05-05T21:07:59.202Z,95331.91
2023-05-05T21:10:27.414Z,95378.78
2023-05-05T21:12:54.062Z,95445.81
2023-05-05T21:15:20.593Z,95493.47
2023-05-05T21:17:47.797Z,95520.59
2023-05-05T21:20:14.633Z,95530.56
2023-05-05T21:22:41.157Z,95552.31
2023-05-05T21:25:16.026Z,95598.91
2023-05-05T21:27:42.974Z,95575.47
2023-05-05T21:30:11.452Z,95548.28
2023-05-05T21:32:39.534Z,95510.16
2023-05-05T21:35:08.451Z,95465.81
2023-05-05T21:37:37.670Z,95469.47
2023-05-05T21:40:06.079Z,95488.31
2023-05-05T21:42:32.632Z,95451.19
2023-05-05T21:44:59.187Z,95467.91
2023-05-05T21:47:27.267Z,95485.19
2023-05-05T21:49:53.806Z,95487.88
2023-05-05T21:52:21.252Z,95435.22
2023-05-05T21:54:47.937Z,95549.38
2023-05-05T21:57:14.534Z,95572.47
2023-05-05T21:59:41.349Z,95592.00
2023-05-05T22:02:07.974Z,95575.81
2023-05-05T22:04:34.700Z,95550.78
2023-05-05T22:07:01.474Z,95583.88
2023-05-05T22:09:28.128Z,95614.09
2023-05-05T22:11:55.069Z,95612.03
2023-05-05T22:14:21.594Z,95648.75
2023-05-05T22:16:48.178Z,95694.63
2023-05-05T22:19:14.733Z,95716.09
2023-05-05T22:21:41.226Z,95726.66
2023-05-05T22:24:07.776Z,95769.38
2023-05-05T22:26:34.280Z,95823.69
2023-05-05T22:29:01.045Z,95854.19
2023-05-05T22:31:27.934Z,95864.19
2023-05-05T22:33:54.559Z,95976.47
2023-05-05T22:36:21.701Z,96034.88
2023-05-05T22:38:48.477Z,96026.81
2023-05-05T22:41:15.914Z,96052.06
2023-05-05T22:43:42.889Z,96039.75
2023-05-05T22:46:09.866Z,96024.00
2023-05-05T22:48:36.536Z,96050.13
2023-05-05T22:51:03.504Z,96020.44
2023-05-05T22:53:30.093Z,96053.94
2023-05-05T22:55:58.334Z,96074.03
2023-05-05T22:58:25.823Z,96056.91
2023-05-05T23:00:52.479Z,96104.38
2023-05-05T23:03:19.205Z,96092.78
2023-05-05T23:05:45.958Z,96116.34
2023-05-05T23:08:12.489Z,96075.00
2023-05-05T23:10:39.093Z,96010.50
2023-05-05T23:13:05.991Z,95935.09
2023-05-05T23:15:32.558Z,95871.09
2023-05-05T23:17:59.297Z,95773.09
2023-05-05T23:20:26.113Z,95754.97
2023-05-05T23:22:52.683Z,95670.03
2023-05-05T23:25:19.340Z,95637.50
2023-05-05T23:27:45.968Z,95567.81
2023-05-05T23:30:12.999Z,95592.81
2023-05-05T23:32:39.537Z,95562.91
2023-05-05T23:35:06.630Z,95485.19
2023-05-05T23:37:33.197Z,95498.06
2023-05-05T23:39:59.855Z,95507.09
2023-05-05T23:42:26.404Z,95430.81
2023-05-05T23:44:52.914Z,95436.28
2023-05-05T23:47:19.423Z,95429.38
2023-05-05T23:49:45.985Z,95431.84
2023-05-05T23:52:12.920Z,95406.22
2023-05-05T23:54:39.909Z,95476.16
2023-05-05T23:57:06.543Z,95478.78
2023-05-05T23:59:33.071Z,95478.78
